createdAt,value
2023-08-29T00:03:57.187Z,68.30
2023-08-29T00:21:47.964Z,69.60
2023-08-29T00:25:22.684Z,70.60
2023-08-29T00:28:43.872Z,70.90
2023-08-29T00:43:06.069Z,69.30
2023-08-29T00:45:59.316Z,68.00
2023-08-29T00:52:53.334Z,69.80
2023-08-29T00:59:49.570Z,72.00
2023-08-29T01:10:12.927Z,72.00
2023-08-29T01:21:17.046Z,74.20
2023-08-29T01:35:25.759Z,73.70
2023-08-29T01:49:31.756Z,76.00
2023-08-29T01:52:24.893Z,76.00
2023-08-29T02:30:13.480Z,79.90
2023-08-29T02:33:40.081Z,79.60
2023-08-29T02:40:44.112Z,82.40
2023-08-29T02:55:48.392Z,84.20
2023-08-29T02:59:45.663Z,84.20
2023-08-29T03:21:05.574Z,84.00
2023-08-29T03:25:19.379Z,85.90
2023-08-29T03:32:08.313Z,82.30
2023-08-29T03:35:29.220Z,83.50
2023-08-29T03:42:44.634Z,83.60
2023-08-29T03:50:04.295Z,84.70
2023-08-29T03:53:37.330Z,85.50
2023-08-29T03:57:14.727Z,86.50
2023-08-29T04:00:47.815Z,86.30
2023-08-29T04:09:45.357Z,89.00
2023-08-29T04:33:26.713Z,91.70
2023-08-29T04:43:58.075Z,92.70
2023-08-29T04:51:25.400Z,93.50
2023-08-29T04:54:58.071Z,94.00
2023-08-29T05:05:22.904Z,94.50
2023-08-29T05:11:51.267Z,95.20
2023-08-29T05:16:04.509Z,95.00
2023-08-29T05:19:45.787Z,95.50
2023-08-29T05:23:41.143Z,95.90
2023-08-29T05:30:18.798Z,95.90
2023-08-29T05:41:10.321Z,95.70
2023-08-29T05:44:01.525Z,95.90
2023-08-29T05:47:04.112Z,95.50
2023-08-29T05:52:49.710Z,94.20
2023-08-29T05:56:22.195Z,94.10
2023-08-29T06:10:40.973Z,93.00
2023-08-29T06:13:27.857Z,92.80
2023-08-29T06:38:05.546Z,93.80
2023-08-29T06:40:59.312Z,89.00
2023-08-29T06:49:57.324Z,91.40
2023-08-29T06:52:28.177Z,89.80
2023-08-29T06:55:08.226Z,87.90
2023-08-29T06:57:51.332Z,89.30
2023-08-29T07:00:31.999Z,88.90
2023-08-29T07:03:09.584Z,88.10
2023-08-29T07:05:46.157Z,87.60
2023-08-29T07:08:18.186Z,88.50
2023-08-29T07:10:52.617Z,84.00
2023-08-29T07:13:33.436Z,85.50
2023-08-29T07:16:05.827Z,84.00
2023-08-29T07:18:42.672Z,83.90
2023-08-29T07:21:30.736Z,82.00
2023-08-29T07:24:47.224Z,83.40
2023-08-29T07:27:42.975Z,81.30
2023-08-29T07:30:25.562Z,81.50
2023-08-29T07:33:12.363Z,78.80
2023-08-29T07:35:52.111Z,79.20
2023-08-29T07:38:27.944Z,77.00
2023-08-29T07:41:19.706Z,74.90
2023-08-29T07:44:03.819Z,75.40
2023-08-29T07:46:38.968Z,74.70
2023-08-29T07:49:21.681Z,73.00
2023-08-29T07:52:27.793Z,73.10
2023-08-29T07:55:03.928Z,70.80
2023-08-29T07:57:45.473Z,70.50
2023-08-29T08:00:18.564Z,68.50
2023-08-29T08:03:03.461Z,67.00
2023-08-29T08:05:38.756Z,63.90
2023-08-29T08:08:11.031Z,59.70
2023-08-29T08:39:09.620Z,49.10
2023-08-29T08:53:54.501Z,46.20
2023-08-29T08:59:08.932Z,46.40
2023-08-29T09:01:07.901Z,43.00
2023-08-29T09:22:55.813Z,34.60
2023-08-29T09:26:20.002Z,33.30
2023-08-29T09:41:16.991Z,15.10
2023-08-29T09:43:58.080Z,12.70
2023-08-29T09:54:54.460Z,1.60
2023-08-29T09:58:07.817Z,1.00
2023-08-29T10:18:12.283Z,1.00
2023-08-29T10:22:26.497Z,1.00
2023-08-29T10:29:15.727Z,1.00
2023-08-29T10:33:34.672Z,1.00
2023-08-29T10:49:04.627Z,1.00
2023-08-29T10:52:38.514Z,1.00
2023-08-29T10:55:12.907Z,1.00
2023-08-29T10:57:40.769Z,1.00
2023-08-29T11:00:51.583Z,1.00
2023-08-29T11:23:40.182Z,1.00
2023-08-29T11:33:52.077Z,1.00
2023-08-29T11:37:31.935Z,1.00
2023-08-29T11:39:33.012Z,1.00
2023-08-29T11:42:17.220Z,1.00
2023-08-29T11:48:37.696Z,1.00
2023-08-29T11:55:00.663Z,1.00
2023-08-29T11:57:41.695Z,1.00
2023-08-29T12:00:11.869Z,1.00
2023-08-29T12:11:21.782Z,1.00
2023-08-29T12:38:46.539Z,1.00
2023-08-29T12:50:04.332Z,1.00
2023-08-29T13:19:22.703Z,1.00
2023-08-29T13:22:09.642Z,1.00
2023-08-29T13:24:41.307Z,1.00
2023-08-29T13:34:59.145Z,1.00
2023-08-29T13:38:45.497Z,1.00
2023-08-29T13:42:21.842Z,1.00
2023-08-29T13:45:33.164Z,1.00
2023-08-29T13:48:50.311Z,1.00
2023-08-29T13:54:21.020Z,1.00
2023-08-29T13:59:50.983Z,1.00
2023-08-29T14:00:12.487Z,1.00
2023-08-29T14:05:42.846Z,1.00
2023-08-29T14:08:33.330Z,1.00
2023-08-29T14:11:26.176Z,1.00
2023-08-29T14:15:02.054Z,1.00
2023-08-29T14:19:15.077Z,1.00
2023-08-29T14:22:37.776Z,1.00
2023-08-29T14:29:18.183Z,1.00
2023-08-29T14:35:37.002Z,1.00
2023-08-29T14:36:08.787Z,1.00
2023-08-29T14:38:11.093Z,1.00
2023-08-29T14:40:43.775Z,1.00
2023-08-29T14:43:12.336Z,1.00
2023-08-29T14:45:43.084Z,1.00
2023-08-29T14:51:56.687Z,1.00
2023-08-29T14:58:55.277Z,1.00
2023-08-29T15:01:43.503Z,1.00
2023-08-29T15:07:43.165Z,1.00
2023-08-29T15:13:06.462Z,1.00
2023-08-29T15:15:36.898Z,1.00
2023-08-29T15:18:05.028Z,1.00
2023-08-29T15:20:32.721Z,1.00
2023-08-29T15:23:05.052Z,1.00
2023-08-29T15:25:33.241Z,1.00
2023-08-29T15:28:00.857Z,1.00
2023-08-29T15:30:28.097Z,1.00
2023-08-29T15:32:56.645Z,1.00
2023-08-29T15:35:23.890Z,1.00
2023-08-29T15:37:51.375Z,1.00
2023-08-29T15:40:21.038Z,1.00
2023-08-29T15:42:52.014Z,1.00
2023-08-29T15:45:25.457Z,1.00
2023-08-29T15:49:02.250Z,1.00
2023-08-29T15:59:06.890Z,1.00
2023-08-29T16:01:44.337Z,1.00
2023-08-29T16:07:31.435Z,1.00
2023-08-29T16:09:59.623Z,1.00
2023-08-29T16:13:12.370Z,1.00
2023-08-29T16:15:42.743Z,1.00
2023-08-29T16:18:16.331Z,1.00
2023-08-29T16:20:43.757Z,1.00
2023-08-29T16:23:11.828Z,1.00
2023-08-29T16:25:40.997Z,1.00
2023-08-29T16:28:08.573Z,1.00
2023-08-29T16:30:36.132Z,1.00
2023-08-29T16:33:04.042Z,1.00
2023-08-29T16:35:31.296Z,1.00
2023-08-29T16:38:02.664Z,1.00
2023-08-29T16:40:33.621Z,1.00
2023-08-29T16:43:00.874Z,1.00
2023-08-29T16:45:29.899Z,1.00
2023-08-29T16:48:00.654Z,1.00
2023-08-29T16:50:31.315Z,1.00
2023-08-29T16:53:01.077Z,1.00
2023-08-29T16:55:31.370Z,1.00
2023-08-29T16:58:01.889Z,1.00
2023-08-29T17:00:30.232Z,1.00
2023-08-29T17:02:59.648Z,1.00
2023-08-29T17:05:31.156Z,1.00
2023-08-29T17:08:03.526Z,1.00
2023-08-29T17:10:34.080Z,1.00
2023-08-29T17:13:01.555Z,1.00
2023-08-29T17:15:30.618Z,1.00
2023-08-29T17:18:00.439Z,1.00
2023-08-29T17:20:34.617Z,1.00
2023-08-29T17:23:15.033Z,1.00
2023-08-29T17:25:42.272Z,1.00
2023-08-29T17:28:15.287Z,1.00
2023-08-29T17:30:45.898Z,1.00
2023-08-29T17:33:14.630Z,1.00
2023-08-29T17:35:42.212Z,1.00
2023-08-29T17:38:09.879Z,1.00
2023-08-29T17:40:37.602Z,1.00
2023-08-29T17:43:05.046Z,1.00
2023-08-29T17:45:32.625Z,1.00
2023-08-29T17:48:00.722Z,1.00
2023-08-29T17:50:28.795Z,1.00
2023-08-29T17:55:57.683Z,1.00
2023-08-29T17:58:25.650Z,1.00
2023-08-29T18:00:53.383Z,1.00
2023-08-29T18:03:33.357Z,1.00
2023-08-29T18:06:24.644Z,1.00
2023-08-29T18:09:02.885Z,1.00
2023-08-29T18:11:42.447Z,2.80
2023-08-29T18:14:12.973Z,13.10
2023-08-29T18:16:47.541Z,19.40
2023-08-29T18:19:17.695Z,25.70
2023-08-29T18:21:45.000Z,31.60
2023-08-29T18:24:13.332Z,35.10
2023-08-29T18:26:40.640Z,38.20
2023-08-29T18:29:07.838Z,42.70
2023-08-29T18:31:39.853Z,43.70
2023-08-29T18:34:07.425Z,46.90
2023-08-29T18:39:34.966Z,49.30
2023-08-29T18:42:02.312Z,48.20
2023-08-29T18:45:09.010Z,49.70
2023-08-29T18:47:36.581Z,54.00
2023-08-29T18:50:19.006Z,53.50
2023-08-29T18:53:32.211Z,57.80
2023-08-29T18:56:01.254Z,69.50
2023-08-29T18:58:40.560Z,74.50
2023-08-29T19:01:20.622Z,84.80
2023-08-29T19:03:50.828Z,89.60
2023-08-29T19:06:22.016Z,90.30
2023-08-29T19:12:33.107Z,98.70
2023-08-29T19:15:09.221Z,99.90
2023-08-29T19:18:09.389Z,99.90
2023-08-29T19:20:57.399Z,99.90
2023-08-29T19:23:36.838Z,99.90
2023-08-29T19:26:05.853Z,99.90
2023-08-29T19:28:33.390Z,99.90
2023-08-29T19:31:17.444Z,99.90
2023-08-29T19:33:46.260Z,99.90
2023-08-29T19:36:19.984Z,99.90
2023-08-29T19:38:59.005Z,99.90
2023-08-29T19:46:17.359Z,99.90
2023-08-29T19:49:23.592Z,99.90
2023-08-29T19:52:19.674Z,99.90
2023-08-29T19:58:27.793Z,99.90
2023-08-29T20:01:37.684Z,99.90
2023-08-29T20:04:46.646Z,99.90
2023-08-29T20:17:20.786Z,99.90
2023-08-29T20:20:01.416Z,99.90
2023-08-29T20:22:30.856Z,99.90
2023-08-29T20:25:01.209Z,99.90
2023-08-29T20:27:31.485Z,99.90
2023-08-29T20:30:02.532Z,99.90
2023-08-29T20:32:30.284Z,99.90
2023-08-29T20:34:57.620Z,99.90
2023-08-29T20:37:25.386Z,99.90
2023-08-29T20:39:52.560Z,99.90
2023-08-29T20:42:21.733Z,99.90
2023-08-29T20:44:49.229Z,99.90
2023-08-29T20:47:18.364Z,99.90
2023-08-29T20:49:45.550Z,99.90
2023-08-29T20:52:13.108Z,99.90
2023-08-29T20:54:40.563Z,99.90
2023-08-29T20:57:07.908Z,99.90
2023-08-29T20:59:35.228Z,99.90
2023-08-29T21:02:03.196Z,99.90
2023-08-29T21:04:30.788Z,99.90
2023-08-29T21:06:58.043Z,99.90
2023-08-29T21:09:25.269Z,99.90
2023-08-29T21:11:52.485Z,99.90
2023-08-29T21:14:19.898Z,99.90
2023-08-29T21:16:47.814Z,99.90
2023-08-29T21:19:15.601Z,99.90
2023-08-29T21:21:43.143Z,99.90
2023-08-29T21:24:10.552Z,99.90
2023-08-29T21:26:37.871Z,99.90
2023-08-29T21:29:05.060Z,99.90
2023-08-29T21:31:50.483Z,99.90
2023-08-29T21:34:17.846Z,99.90
2023-08-29T21:36:45.057Z,99.90
2023-08-29T21:39:12.375Z,99.90
2023-08-29T21:41:41.313Z,99.90
2023-08-29T21:44:08.900Z,99.90
2023-08-29T21:46:36.043Z,99.90
2023-08-29T21:49:03.631Z,99.90
2023-08-29T21:51:31.161Z,99.90
2023-08-29T21:53:58.454Z,99.90
2023-08-29T21:56:25.724Z,99.90
2023-08-29T21:58:53.212Z,99.90
2023-08-29T22:01:21.691Z,99.90
2023-08-29T22:03:50.279Z,99.90
2023-08-29T22:06:17.716Z,99.90
2023-08-29T22:08:45.494Z,99.90
2023-08-29T22:11:12.896Z,99.90
2023-08-29T22:13:40.156Z,99.90
2023-08-29T22:16:08.730Z,99.90
2023-08-29T22:18:36.220Z,99.90
2023-08-29T22:21:09.522Z,99.90
2023-08-29T22:23:36.695Z,99.90
2023-08-29T22:26:08.143Z,99.90
2023-08-29T22:28:35.608Z,99.90
2023-08-29T22:31:02.999Z,99.90
2023-08-29T22:33:32.368Z,99.90
2023-08-29T22:36:00.132Z,99.90
2023-08-29T22:38:27.582Z,99.90
2023-08-29T22:41:00.062Z,99.90
2023-08-29T22:43:27.792Z,99.90
2023-08-29T22:45:56.282Z,99.90
2023-08-29T22:48:24.752Z,99.90
2023-08-29T22:50:52.164Z,99.90
2023-08-29T22:53:19.360Z,99.90
2023-08-29T22:55:46.677Z,99.90
2023-08-29T22:58:13.984Z,99.90
2023-08-29T23:00:48.528Z,99.90
2023-08-29T23:03:19.549Z,99.90
2023-08-29T23:05:48.918Z,99.90
2023-08-29T23:08:16.250Z,99.90
2023-08-29T23:10:44.400Z,99.90
2023-08-29T23:13:11.540Z,99.90
2023-08-29T23:15:38.899Z,99.90
2023-08-29T23:18:06.924Z,99.90
2023-08-29T23:20:34.337Z,99.90
2023-08-29T23:23:01.422Z,99.90
2023-08-29T23:25:28.894Z,99.90
2023-08-29T23:27:56.133Z,99.90
2023-08-29T23:30:23.301Z,99.90
2023-08-29T23:32:51.134Z,99.90
2023-08-29T23:35:19.837Z,99.90
2023-08-29T23:37:46.992Z,99.90
2023-08-29T23:40:14.427Z,99.90
2023-08-29T23:42:41.813Z,99.90
2023-08-29T23:45:09.936Z,99.90
2023-08-29T23:47:37.903Z,99.90
2023-08-29T23:50:05.468Z,99.90
2023-08-29T23:52:32.654Z,99.90
2023-08-29T23:54:59.925Z,99.90
2023-08-29T23:57:27.210Z,99.90
2023-08-29T23:59:54.554Z,99.90
